Time,TemperatureF,DewpointF,PressureIn,WindDirection,WindDirectionDegrees,WindSpeedMPH,WindSpeedGustMPH,Humidity,HourlyPrecipIn,Conditions,Clouds,dailyrainin,SolarRadiationWatts/m^2,SoftwareType,DateUTC
2013-01-31 00:01:00,33.0,23.0,-100.00,West,272,10.0,27.0,67,0.00,,,1.26,0.000000,,2013-01-31 06:01:00,
2013-01-31 08:02:00,31.0,21.0,-100.00,WSW,247,8.0,14.0,67,0.00,,,0.47,2.000000,,2013-01-31 14:02:00,
2013-01-31 08:32:00,31.0,19.0,-100.00,WSW,250,9.0,17.0,60,0.00,,,0.40,27.000000,,2013-01-31 14:32:00,
2013-01-31 08:42:00,31.0,19.0,-100.00,WSW,250,9.0,17.0,60,0.00,,,0.40,27.000000,,2013-01-31 14:42:00,
2013-01-31 08:52:00,31.0,19.0,-100.00,WSW,250,9.0,17.0,60,0.00,,,0.40,27.000000,,2013-01-31 14:52:00,
2013-01-31 09:03:00,31.0,19.0,-100.00,WSW,250,9.0,17.0,60,0.00,,,0.40,27.000000,,2013-01-31 15:03:00,
2013-01-31 09:32:00,33.0,21.0,-100.00,WSW,247,8.0,15.0,60,0.00,,,0.27,122.000000,,2013-01-31 15:32:00,
2013-01-31 09:42:00,33.0,21.0,-100.00,WSW,247,8.0,15.0,60,0.00,,,0.27,122.000000,,2013-01-31 15:42:00,
2013-01-31 09:52:00,33.0,21.0,-100.00,WSW,247,8.0,15.0,60,0.00,,,0.27,122.000000,,2013-01-31 15:52:00,
2013-01-31 10:03:00,33.0,21.0,-100.00,WSW,247,8.0,15.0,60,0.00,,,0.27,122.000000,,2013-01-31 16:03:00,
2013-01-31 10:33:00,33.0,20.0,-100.00,WSW,251,10.0,19.0,58,0.00,,,0.19,238.000000,,2013-01-31 16:33:00,
2013-01-31 10:42:00,33.0,20.0,-100.00,WSW,251,10.0,19.0,58,0.00,,,0.19,238.000000,,2013-01-31 16:42:00,
2013-01-31 10:52:00,33.0,20.0,-100.00,WSW,251,10.0,19.0,58,0.00,,,0.19,238.000000,,2013-01-31 16:52:00,
2013-01-31 11:02:00,33.0,20.0,-100.00,WSW,251,10.0,19.0,58,0.00,,,0.19,238.000000,,2013-01-31 17:02:00,
2013-01-31 11:32:00,37.0,23.0,-100.00,SW,234,10.0,17.0,57,0.00,,,0.16,399.000000,,2013-01-31 17:32:00,
2013-01-31 11:44:00,37.0,23.0,-100.00,SW,234,10.0,17.0,57,0.00,,,0.16,399.000000,,2013-01-31 17:44:00,
2013-01-31 11:53:00,37.0,23.0,-100.00,SW,234,10.0,17.0,57,0.00,,,0.16,399.000000,,2013-01-31 17:53:00,
2013-01-31 12:03:00,37.0,23.0,-100.00,SW,234,10.0,17.0,57,0.00,,,0.16,399.000000,,2013-01-31 18:03:00,
2013-01-31 12:32:00,40.0,25.0,-100.00,WSW,241,11.0,18.0,54,0.00,,,0.16,548.000000,,2013-01-31 18:32:00,
2013-01-31 12:43:00,40.0,25.0,-100.00,WSW,241,11.0,18.0,54,0.00,,,0.16,548.000000,,2013-01-31 18:43:00,
2013-01-31 12:52:00,40.0,25.0,-100.00,WSW,241,11.0,18.0,54,0.00,,,0.16,548.000000,,2013-01-31 18:52:00,
2013-01-31 13:02:00,40.0,25.0,-100.00,WSW,241,11.0,18.0,54,0.00,,,0.16,548.000000,,2013-01-31 19:02:00,
2013-01-31 13:33:00,42.0,22.0,-100.00,WSW,240,10.0,20.0,44,0.00,,,0.16,576.000000,,2013-01-31 19:33:00,
2013-01-31 13:43:00,42.0,22.0,-100.00,WSW,240,10.0,20.0,44,0.00,,,0.16,576.000000,,2013-01-31 19:43:00,
2013-01-31 13:52:00,42.0,22.0,-100.00,WSW,240,10.0,20.0,44,0.00,,,0.16,576.000000,,2013-01-31 19:52:00,
2013-01-31 14:02:00,42.0,22.0,-100.00,WSW,240,10.0,20.0,44,0.00,,,0.16,576.000000,,2013-01-31 20:02:00,
2013-01-31 15:32:00,43.0,23.0,-100.00,WSW,246,8.0,18.0,45,-99.99,,,0.16,192.000000,,2013-01-31 21:32:00,
2013-01-31 15:42:00,43.0,23.0,-100.00,WSW,246,8.0,18.0,45,-99.99,,,0.16,192.000000,,2013-01-31 21:42:00,
2013-01-31 15:52:00,43.0,23.0,-100.00,WSW,246,8.0,18.0,45,-99.99,,,0.16,192.000000,,2013-01-31 21:52:00,
2013-01-31 16:03:00,43.0,23.0,-100.00,WSW,246,8.0,18.0,45,-99.99,,,0.16,192.000000,,2013-01-31 22:03:00,
2013-01-31 16:33:00,41.0,21.0,-100.00,WSW,238,8.0,22.0,44,0.00,,,0.16,157.000000,,2013-01-31 22:33:00,
2013-01-31 16:42:00,41.0,21.0,-100.00,WSW,238,8.0,22.0,44,0.00,,,0.16,157.000000,,2013-01-31 22:42:00,
2013-01-31 16:52:00,41.0,21.0,-100.00,WSW,238,8.0,22.0,44,0.00,,,0.16,157.000000,,2013-01-31 22:52:00,
2013-01-31 17:02:00,41.0,21.0,-100.00,WSW,238,8.0,22.0,44,0.00,,,0.16,157.000000,,2013-01-31 23:02:00,
2013-01-31 17:32:00,41.0,22.0,-100.00,SW,235,7.0,14.0,47,0.00,,,0.06,19.000000,,2013-01-31 23:32:00,
2013-01-31 17:42:00,41.0,22.0,-100.00,SW,235,7.0,14.0,47,0.00,,,0.06,19.000000,,2013-01-31 23:42:00,
2013-01-31 17:52:00,41.0,22.0,-100.00,SW,235,7.0,14.0,47,0.00,,,0.06,19.000000,,2013-01-31 23:52:00,
2013-01-31 18:01:00,41.0,22.0,-100.00,SW,235,7.0,14.0,47,0.00,,,0.06,19.000000,,2013-02-01 00:01:00,
2013-01-31 18:32:00,41.0,23.0,-100.00,WSW,241,9.0,17.0,48,0.00,,,0.02,0.000000,,2013-02-01 00:32:00,
2013-01-31 18:42:00,41.0,23.0,-100.00,WSW,241,9.0,17.0,48,0.00,,,0.02,0.000000,,2013-02-01 00:42:00,
2013-01-31 18:52:00,41.0,23.0,-100.00,WSW,241,9.0,17.0,48,0.00,,,0.02,0.000000,,2013-02-01 00:52:00,
2013-01-31 19:01:00,41.0,23.0,-100.00,WSW,241,9.0,17.0,48,0.00,,,0.02,0.000000,,2013-02-01 01:01:00,
2013-01-31 19:32:00,41.0,24.0,-100.00,WSW,243,9.0,18.0,51,0.00,,,-99.99,0.000000,,2013-02-01 01:32:00,
2013-01-31 19:42:00,41.0,24.0,-100.00,WSW,243,9.0,18.0,51,0.00,,,-99.99,0.000000,,2013-02-01 01:42:00,
2013-01-31 19:52:00,41.0,24.0,-100.00,WSW,243,9.0,18.0,51,0.00,,,-99.99,0.000000,,2013-02-01 01:52:00,
2013-01-31 20:02:00,41.0,24.0,-100.00,WSW,243,9.0,18.0,51,0.00,,,-99.99,0.000000,,2013-02-01 02:02:00,
2013-01-31 20:32:00,41.0,23.0,-100.00,WSW,238,7.0,13.0,49,0.00,,,0.00,0.000000,,2013-02-01 02:32:00,
2013-01-31 20:42:00,41.0,23.0,-100.00,WSW,238,7.0,13.0,49,0.00,,,0.00,0.000000,,2013-02-01 02:42:00,
2013-01-31 20:52:00,41.0,23.0,-100.00,WSW,238,7.0,13.0,49,0.00,,,0.00,0.000000,,2013-02-01 02:52:00,
2013-01-31 21:02:00,41.0,23.0,-100.00,WSW,238,7.0,13.0,49,0.00,,,0.00,0.000000,,2013-02-01 03:02:00,
2013-01-31 21:33:00,38.0,29.0,-100.00,WSW,252,11.0,30.0,69,0.00,,,0.00,0.000000,,2013-02-01 03:33:00,
2013-01-31 21:42:00,38.0,29.0,-100.00,WSW,252,11.0,30.0,69,0.00,,,0.00,0.000000,,2013-02-01 03:42:00,
2013-01-31 21:52:00,38.0,29.0,-100.00,WSW,252,11.0,30.0,69,0.00,,,0.00,0.000000,,2013-02-01 03:52:00,
2013-01-31 22:02:00,38.0,29.0,-100.00,WSW,252,11.0,30.0,69,0.00,,,0.00,0.000000,,2013-02-01 04:02:00,
2013-01-31 22:32:00,33.0,32.0,-100.00,WNW,285,9.0,23.0,95,0.04,,,0.04,0.000000,,2013-02-01 04:32:00,
2013-01-31 22:42:00,33.0,32.0,-100.00,WNW,285,9.0,23.0,95,0.04,,,0.04,0.000000,,2013-02-01 04:42:00,
2013-01-31 22:52:00,33.0,32.0,-100.00,WNW,285,9.0,23.0,95,0.04,,,0.04,0.000000,,2013-02-01 04:52:00,
2013-01-31 23:03:00,33.0,32.0,-100.00,WNW,285,9.0,23.0,95,0.04,,,0.04,0.000000,,2013-02-01 05:03:00,
2013-01-31 23:32:00,27.0,26.0,-100.00,NW,311,10.0,24.0,95,0.00,,,0.04,0.000000,,2013-02-01 05:32:00,
2013-01-31 23:42:00,27.0,26.0,-100.00,NW,311,10.0,24.0,95,0.00,,,0.04,0.000000,,2013-02-01 05:42:00,
2013-01-31 23:52:00,27.0,26.0,-100.00,NW,311,10.0,24.0,95,0.00,,,0.04,0.000000,,2013-02-01 05:52:00,